Time;durP1;ratioP1;P1;durP2;ratioP2;P2;SDS_P1;SDS_P2;PMS_P1;PMS_P2;Temp;Humidity;BMP_temperature;BMP_pressure;BME280_temperature;BME280_humidity;BME280_pressure;Samples;Min_cycle;Max_cycle;Signal;HPM_P1;HPM_P2
2022/06/08 00:01:31;;;;;;;12.88;4.05;;;;;;;16.85;100.00;97682.44;5047819;28;20067;-55
2022/06/08 00:03:59;;;;;;;13.88;3.90;;;;;;;16.70;100.00;97679.06;5046791;28;20100;-56
2022/06/08 00:06:25;;;;;;;16.15;4.10;;;;;;;16.93;100.00;97680.09;5047991;28;20457;-54
2022/06/08 00:08:51;;;;;;;13.85;3.90;;;;;;;16.97;100.00;97675.44;5049713;28;20020;-55
2022/06/08 00:11:18;;;;;;;12.43;3.45;;;;;;;17.17;100.00;97681.06;5048089;28;20067;-56
2022/06/08 00:13:44;;;;;;;13.52;3.72;;;;;;;16.80;100.00;97671.38;5050239;28;20033;-55
2022/06/08 00:16:11;;;;;;;13.88;3.90;;;;;;;17.01;100.00;97669.00;5048300;28;20056;-55
2022/06/08 00:18:39;;;;;;;16.52;4.00;;;;;;;16.95;100.00;97661.56;5050642;28;20454;-54
2022/06/08 00:21:05;;;;;;;11.57;3.60;;;;;;;17.01;100.00;97669.00;5047604;28;20039;-56
2022/06/08 00:23:31;;;;;;;11.05;3.30;;;;;;;16.59;100.00;97671.09;5048651;28;20039;-55
2022/06/08 00:25:57;;;;;;;10.00;3.25;;;;;;;16.54;100.00;97668.78;5048643;28;20044;-56
2022/06/08 00:28:22;;;;;;;14.85;3.88;;;;;;;16.73;100.00;97663.06;5047554;28;20046;-58
2022/06/08 00:30:47;;;;;;;13.13;3.42;;;;;;;16.89;100.00;97672.50;5044412;28;20040;-57
2022/06/08 00:33:13;;;;;;;22.13;4.15;;;;;;;16.32;100.00;97674.72;5046916;28;20020;-56
2022/06/08 00:35:38;;;;;;;15.68;3.70;;;;;;;16.18;100.00;97673.03;5047310;28;20119;-55
2022/06/08 00:38:04;;;;;;;11.00;3.58;;;;;;;16.34;100.00;97674.63;5051786;28;20402;-57
2022/06/08 00:40:44;;;;;;;12.07;3.85;;;;;;;16.47;100.00;97666.69;5044276;28;20041;-57
2022/06/08 00:43:09;;;;;;;9.88;3.35;;;;;;;16.58;100.00;97670.25;5048305;28;20043;-57
2022/06/08 00:45:36;;;;;;;9.23;3.13;;;;;;;16.60;100.00;97662.25;5048675;28;20067;-56
2022/06/08 00:48:05;;;;;;;13.15;3.63;;;;;;;16.77;100.00;97661.03;5049520;28;20025;-55
2022/06/08 00:50:35;;;;;;;14.55;4.20;;;;;;;17.01;100.00;97655.00;5047672;28;20043;-55
2022/06/08 00:53:01;;;;;;;14.80;4.05;;;;;;;16.95;100.00;97656.28;5046928;28;20020;-56
2022/06/08 00:55:29;;;;;;;15.98;4.13;;;;;;;17.01;100.00;97655.81;5044122;28;20045;-56
2022/06/08 00:57:58;;;;;;;13.23;3.60;;;;;;;16.63;100.00;97656.75;5048563;28;20698;-56
2022/06/08 01:00:28;;;;;;;16.23;4.53;;;;;;;16.63;100.00;97648.84;5044802;28;20631;-55
2022/06/08 01:02:54;;;;;;;13.00;3.80;;;;;;;16.72;100.00;97650.00;5049273;28;20721;-56
2022/06/08 01:05:30;;;;;;;10.02;3.13;;;;;;;16.72;100.00;97653.47;5049897;28;20600;-58
2022/06/08 01:08:01;;;;;;;13.27;3.25;;;;;;;16.49;100.00;97651.66;5050211;28;20039;-56
2022/06/08 01:10:37;;;;;;;11.35;3.35;;;;;;;16.45;100.00;97652.78;5045722;28;20478;-57
2022/06/08 01:13:05;;;;;;;12.13;3.65;;;;;;;16.49;100.00;97643.75;5048644;28;20029;-57
2022/06/08 01:15:32;;;;;;;10.80;3.25;;;;;;;16.67;100.00;97649.47;5050532;28;20029;-58
2022/06/08 01:17:58;;;;;;;11.38;3.22;;;;;;;16.41;100.00;97646.91;5050001;28;20067;-57
2022/06/08 01:20:23;;;;;;;12.85;3.25;;;;;;;16.66;100.00;97640.75;5046977;28;20135;-58
2022/06/08 01:22:49;;;;;;;11.18;3.38;;;;;;;16.34;100.00;97641.25;5047686;28;20009;-57
2022/06/08 01:25:15;;;;;;;18.48;4.53;;;;;;;16.44;100.00;97643.22;5047207;28;20417;-58
2022/06/08 01:28:03;;;;;;;14.27;3.85;;;;;;;16.37;100.00;97634.91;5046579;28;20025;-56
2022/06/08 01:30:55;;;;;;;10.63;3.30;;;;;;;16.06;100.00;97634.41;5046022;28;20115;-57
2022/06/08 01:33:41;;;;;;;11.95;3.45;;;;;;;15.85;100.00;97628.84;5050444;28;20058;-56
2022/06/08 01:36:30;;;;;;;16.00;4.30;;;;;;;15.93;100.00;97626.53;5054314;28;20045;-57
2022/06/08 01:39:05;;;;;;;14.93;3.92;;;;;;;16.17;100.00;97623.16;5063449;28;20024;-55
2022/06/08 01:41:58;;;;;;;11.55;3.50;;;;;;;15.60;100.00;97614.72;5054069;28;20058;-55
2022/06/08 01:44:23;;;;;;;;;;;;;;;15.67;100.00;97614.31;5056124;28;20507;-56
2022/06/08 01:46:51;;;;;;;13.60;3.70;;;;;;;15.80;100.00;97620.44;5053678;28;19927;-55
2022/06/08 01:50:01;;;;;;;9.57;3.10;;;;;;;15.47;100.00;97605.97;5055543;28;20275;-56
2022/06/08 01:52:50;;;;;;;12.95;3.70;;;;;;;15.51;100.00;97607.47;5054932;28;20037;-58
2022/06/08 01:55:18;;;;;;;12.55;3.55;;;;;;;15.70;100.00;97604.41;5053842;28;20409;-56
2022/06/08 01:57:43;;;;;;;11.82;3.55;;;;;;;15.69;100.00;97602.72;5056838;28;20609;-55
2022/06/08 02:00:21;;;;;;;14.52;3.90;;;;;;;15.48;100.00;97605.03;5054796;28;20207;-56
2022/06/08 02:03:19;;;;;;;12.93;3.47;;;;;;;15.77;100.00;97597.00;5058504;28;20468;-56
2022/06/08 02:06:08;;;;;;;13.13;4.00;;;;;;;15.20;100.00;97606.88;5056203;28;20039;-56
2022/06/08 02:08:39;;;;;;;13.63;4.03;;;;;;;15.18;100.00;97603.50;5024582;28;20442;-56
2022/06/08 02:11:18;;;;;;;14.63;4.03;;;;;;;15.26;100.00;97604.78;5054313;28;20564;-55
2022/06/08 02:13:51;;;;;;;11.98;3.88;;;;;;;15.34;100.00;97597.22;5057572;28;20083;-55
2022/06/08 02:16:34;;;;;;;11.52;3.67;;;;;;;15.10;100.00;97595.28;5056023;28;20047;-56
2022/06/08 02:19:19;;;;;;;11.20;3.85;;;;;;;14.91;100.00;97600.06;5054999;28;20147;-55
2022/06/08 02:21:53;;;;;;;12.98;3.90;;;;;;;15.14;100.00;97601.16;5054012;28;20051;-56
2022/06/08 02:24:31;;;;;;;13.15;3.60;;;;;;;15.56;100.00;97592.19;5055060;28;20115;-56
2022/06/08 02:27:01;;;;;;;12.25;3.80;;;;;;;15.20;100.00;97596.38;5055041;28;20128;-57
2022/06/08 02:29:50;;;;;;;10.35;3.30;;;;;;;15.12;100.00;97598.63;5054050;28;20044;-56
2022/06/08 02:35:14;;;;;;;12.07;3.47;;;;;;;14.92;100.00;97606.97;5055964;28;20489;-57
2022/06/08 02:37:43;;;;;;;10.85;3.65;;;;;;;14.88;100.00;97606.34;5054798;28;20028;-57
2022/06/08 02:40:13;;;;;;;14.15;4.00;;;;;;;14.80;100.00;97603.38;5051439;28;20115;-56
2022/06/08 02:42:45;;;;;;;12.80;3.85;;;;;;;14.69;100.00;97605.84;5058142;28;20120;-56
2022/06/08 02:45:15;;;;;;;17.10;3.95;;;;;;;14.58;100.00;97601.28;5053259;28;20013;-56
2022/06/08 02:47:43;;;;;;;12.98;3.80;;;;;;;14.51;100.00;97607.81;5051344;28;20040;-55
2022/06/08 02:50:15;;;;;;;17.33;4.20;;;;;;;14.63;100.00;97609.69;5051666;28;20051;-57
2022/06/08 02:52:45;;;;;;;;;;;;;;;14.60;100.00;97604.66;5052663;28;20521;-55
2022/06/08 02:55:33;;;;;;;12.18;3.78;;;;;;;14.51;100.00;97607.81;5051651;28;19916;-56
2022/06/08 02:58:06;;;;;;;11.73;3.47;;;;;;;14.43;100.00;97610.94;5051603;28;20052;-56
2022/06/08 03:01:13;;;;;;;13.32;4.07;;;;;;;14.39;100.00;97610.28;5048171;28;20461;-55
2022/06/08 03:03:47;;;;;;;15.43;4.05;;;;;;;14.35;100.00;97611.41;4999683;28;20488;-56
2022/06/08 03:06:17;;;;;;;21.52;4.30;;;;;;;14.29;100.00;97608.34;5045837;28;20039;-57
2022/06/08 03:08:49;;;;;;;16.70;4.53;;;;;;;14.27;100.00;97608.44;5049454;28;20029;-56
2022/06/08 03:11:16;;;;;;;13.70;3.90;;;;;;;14.26;100.00;97611.97;5048016;28;20124;-57
2022/06/08 03:13:51;;;;;;;15.10;4.15;;;;;;;14.25;100.00;97610.31;5050289;28;20086;-58
2022/06/08 03:16:28;;;;;;;15.40;4.13;;;;;;;14.36;100.00;97618.34;5050965;28;20036;-56
2022/06/08 03:18:54;;;;;;;13.70;4.20;;;;;;;14.11;100.00;97616.38;5050554;28;20522;-58
2022/06/08 03:21:20;;;;;;;16.80;4.35;;;;;;;14.17;100.00;97617.78;5051103;28;20047;-57
2022/06/08 03:23:46;;;;;;;17.30;4.40;;;;;;;14.19;100.00;97613.28;5052303;28;20032;-57
2022/06/08 03:26:12;;;;;;;12.02;4.00;;;;;;;14.11;100.00;97615.56;5051579;28;20070;-57
2022/06/08 03:28:37;;;;;;;15.35;4.65;;;;;;;14.12;100.00;97622.50;5048372;28;20033;-58
2022/06/08 03:31:03;;;;;;;13.77;4.63;;;;;;;14.07;100.00;97620.97;5047597;28;20040;-56
2022/06/08 03:33:28;;;;;;;14.57;4.30;;;;;;;14.15;100.00;97620.53;5052385;28;20113;-57
2022/06/08 03:35:53;;;;;;;15.48;4.35;;;;;;;14.36;100.00;97610.47;5051226;28;20033;-57
2022/06/08 03:38:19;;;;;;;20.77;5.25;;;;;;;14.27;100.00;97616.28;5048048;28;20016;-56
2022/06/08 03:40:44;;;;;;;15.52;4.53;;;;;;;14.34;100.00;97614.97;5047262;28;20042;-56
2022/06/08 03:43:10;;;;;;;17.48;4.57;;;;;;;14.51;100.00;97613.06;5050769;28;20021;-60
2022/06/08 03:45:47;;;;;;;13.38;4.10;;;;;;;14.27;100.00;97611.03;5051881;28;20033;-56
2022/06/08 03:48:13;;;;;;;15.68;4.50;;;;;;;14.38;100.00;97616.47;5051436;28;20024;-56
2022/06/08 03:50:41;;;;;;;11.80;4.07;;;;;;;14.22;100.00;97618.34;5048509;28;20522;-58
2022/06/08 03:53:14;;;;;;;14.07;4.53;;;;;;;14.35;100.00;97624.50;5050720;28;20540;-56
2022/06/08 03:55:40;;;;;;;15.18;4.47;;;;;;;14.38;100.00;97618.25;5049755;28;20044;-57
2022/06/08 03:58:07;;;;;;;13.65;4.40;;;;;;;14.26;100.00;97625.09;5048920;28;20028;-57
2022/06/08 04:00:32;;;;;;;11.57;4.30;;;;;;;14.20;100.00;97625.47;5048268;28;20098;-58
2022/06/08 04:02:59;;;;;;;17.20;4.90;;;;;;;14.45;100.00;97619.56;5050110;28;20025;-57
2022/06/08 04:05:24;;;;;;;15.25;4.90;;;;;;;14.38;100.00;97618.25;5048409;28;20033;-57
2022/06/08 04:07:50;;;;;;;20.55;5.68;;;;;;;14.19;100.00;97613.28;5046952;28;20024;-59
2022/06/08 04:10:15;;;;;;;23.00;5.55;;;;;;;14.27;100.00;97616.28;5047229;28;20275;-59
2022/06/08 04:12:41;;;;;;;12.52;4.38;;;;;;;14.82;100.00;97623.31;5047777;28;20052;-59
2022/06/08 04:15:07;;;;;;;10.95;3.88;;;;;;;15.64;100.00;97606.59;5047440;28;20036;-59
2022/06/08 04:17:33;;;;;;;12.75;3.90;;;;;;;16.49;100.00;97599.81;5049156;28;20398;-58
2022/06/08 04:19:58;;;;;;;19.95;5.22;;;;;;;17.12;100.00;97592.63;5049033;28;20029;-60
2022/06/08 04:22:30;;;;;;;16.08;4.18;;;;;;;17.56;100.00;97586.78;5046089;28;20036;-57
2022/06/08 04:24:56;;;;;;;13.68;4.00;;;;;;;17.68;100.00;97575.28;5051715;28;20020;-58
2022/06/08 04:27:22;;;;;;;12.63;3.90;;;;;;;18.33;100.00;97578.22;5049936;28;20063;-56
2022/06/08 04:29:48;;;;;;;15.00;4.28;;;;;;;18.96;100.00;97567.88;5048565;28;20020;-57
2022/06/08 04:32:13;;;;;;;12.18;3.65;;;;;;;18.29;100.00;97573.19;5047589;28;20037;-55
2022/06/08 04:34:42;;;;;;;12.85;3.90;;;;;;;18.30;100.00;97574.00;5047023;28;20478;-60
2022/06/08 04:37:08;;;;;;;14.40;4.25;;;;;;;18.01;100.00;97576.31;5046748;28;20085;-54
2022/06/08 04:39:34;;;;;;;13.02;4.72;;;;;;;16.91;100.00;97586.34;5046925;28;20047;-56
2022/06/08 04:41:59;;;;;;;13.07;4.13;;;;;;;16.99;100.00;97578.69;5052403;28;20029;-57
2022/06/08 04:44:25;;;;;;;14.88;4.38;;;;;;;16.92;100.00;97582.72;5047386;28;20054;-58
2022/06/08 04:46:51;;;;;;;13.32;4.25;;;;;;;16.85;100.00;97577.06;5049419;28;20044;-56
2022/06/08 04:49:17;;;;;;;15.45;4.28;;;;;;;16.50;100.00;97580.44;5047055;28;20036;-56
2022/06/08 04:51:43;;;;;;;11.90;4.05;;;;;;;17.04;100.00;97581.84;5047225;28;20033;-55
2022/06/08 04:54:08;;;;;;;11.82;3.50;;;;;;;18.00;100.00;97580.75;5048790;28;20375;-55
2022/06/08 04:56:34;;;;;;;14.80;3.88;;;;;;;18.37;100.00;97571.75;5048377;28;20123;-58
2022/06/08 04:58:59;;;;;;;12.35;3.30;;;;;;;19.09;100.00;97573.84;5048016;28;20028;-58
2022/06/08 05:01:25;;;;;;;10.60;3.35;;;;;;;18.21;100.00;97561.53;5045939;28;20499;-54
2022/06/08 05:03:51;;;;;;;11.35;3.50;;;;;;;19.10;100.00;97574.66;5047610;28;20111;-56
2022/06/08 05:06:16;;;;;;;10.95;3.50;;;;;;;18.82;100.00;97582.22;5048767;28;20557;-56
2022/06/08 05:08:41;;;;;;;17.60;3.92;;;;;;;18.83;100.00;97575.97;5048532;28;20119;-56
2022/06/08 05:11:08;;;;;;;11.55;3.63;;;;;;;18.55;100.00;97580.81;5045502;28;20064;-56
2022/06/08 05:13:34;;;;;;;9.50;3.05;;;;;;;20.25;100.00;97566.75;5047504;28;20170;-57
2022/06/08 05:16:01;;;;;;;12.88;3.53;;;;;;;19.76;100.00;97577.13;5049488;28;20032;-56
2022/06/08 05:18:27;;;;;;;8.50;2.95;;;;;;;19.83;100.00;97573.81;5048215;28;20699;-56
2022/06/08 05:20:53;;;;;;;12.27;3.30;;;;;;;19.20;100.00;97576.44;5046915;28;20132;-56
2022/06/08 05:23:26;;;;;;;9.07;2.50;;;;;;;19.34;100.00;97577.09;5049366;28;20166;-58
2022/06/08 05:25:53;;;;;;;10.50;3.08;;;;;;;19.52;100.00;97574.69;5049070;28;20033;-55
2022/06/08 05:28:19;;;;;;;13.73;3.45;;;;;;;19.67;100.00;97570.78;5049487;28;20033;-56
2022/06/08 05:30:45;;;;;;;11.32;3.10;;;;;;;21.22;100.00;97556.28;5048060;28;20036;-56
2022/06/08 05:33:11;;;;;;;11.05;3.28;;;;;;;21.74;100.00;97555.94;5047809;28;20020;-57
2022/06/08 05:35:37;;;;;;;8.15;2.45;;;;;;;24.86;100.00;97557.75;5049472;28;20112;-57
2022/06/08 05:38:03;;;;;;;10.40;2.95;;;;;;;24.02;100.00;97560.25;5048016;28;20501;-56
2022/06/08 05:40:32;;;;;;;9.75;3.03;;;;;;;23.00;100.00;97556.31;5046636;28;20029;-56
2022/06/08 05:42:59;;;;;;;8.88;2.63;;;;;;;22.13;100.00;97548.69;5047574;28;20029;-57
2022/06/08 05:45:26;;;;;;;9.07;2.95;;;;;;;22.45;100.00;97550.09;5049223;28;20115;-59
2022/06/08 05:47:52;;;;;;;7.82;2.60;;;;;;;23.61;100.00;97546.66;5048508;28;20032;-56
2022/06/08 05:50:18;;;;;;;7.60;2.47;;;;;;;25.32;100.00;97547.47;5047025;28;20029;-56
2022/06/08 05:52:44;;;;;;;8.23;2.60;;;;;;;24.58;99.74;97539.34;5047758;28;20024;-55
2022/06/08 05:55:12;;;;;;;11.35;3.08;;;;;;;22.93;100.00;97536.63;5048759;28;20013;-56
2022/06/08 05:57:38;;;;;;;7.30;2.50;;;;;;;26.22;83.02;97531.28;5048787;28;20032;-56
2022/06/08 06:00:06;;;;;;;8.25;2.85;;;;;;;26.98;75.95;97534.19;5047259;28;20028;-57
2022/06/08 06:02:32;;;;;;;6.53;2.10;;;;;;;28.99;72.70;97536.06;5048440;28;20036;-56
2022/06/08 06:04:57;;;;;;;5.07;2.28;;;;;;;27.17;81.46;97530.22;5049518;28;20059;-56
2022/06/08 06:07:23;;;;;;;5.00;2.08;;;;;;;26.84;69.73;97527.78;5049507;28;20831;-56
2022/06/08 06:09:48;;;;;;;6.25;2.40;;;;;;;28.36;67.53;97533.06;5045702;28;20445;-57
2022/06/08 06:12:13;;;;;;;8.45;2.35;;;;;;;28.27;67.74;97535.03;5048151;28;20033;-57
2022/06/08 06:14:39;;;;;;;6.47;2.10;;;;;;;30.50;54.51;97522.25;5046207;28;21005;-57
2022/06/08 06:17:05;;;;;;;7.07;2.10;;;;;;;31.96;50.06;97528.81;5045397;28;20499;-58
2022/06/08 06:19:30;;;;;;;4.70;1.90;;;;;;;30.98;49.97;97525.94;5048485;28;20031;-58
2022/06/08 06:21:56;;;;;;;4.38;2.00;;;;;;;29.16;54.36;97527.78;5052302;28;20033;-56
2022/06/08 06:24:21;;;;;;;4.88;1.98;;;;;;;28.86;53.43;97522.50;5052317;28;20028;-58
2022/06/08 06:26:47;;;;;;;6.65;2.08;;;;;;;28.82;56.07;97523.88;5050160;28;20589;-57
2022/06/08 06:29:12;;;;;;;4.85;2.00;;;;;;;30.97;49.71;97508.94;5052451;28;20052;-56
2022/06/08 06:31:47;;;;;;;12.15;2.60;;;;;;;27.73;55.22;97519.19;5049915;28;20028;-57
2022/06/08 06:34:15;;;;;;;6.40;2.33;;;;;;;31.35;50.20;97505.63;5050262;28;20086;-56
2022/06/08 06:36:40;;;;;;;6.50;2.60;;;;;;;30.20;51.57;97507.41;5050577;28;20037;-55
2022/06/08 06:39:06;;;;;;;4.63;2.50;;;;;;;31.35;45.53;97502.13;5052161;28;20075;-56
2022/06/08 06:41:32;;;;;;;7.65;2.90;;;;;;;27.77;57.57;97507.06;5051861;28;20040;-57
2022/06/08 06:43:59;;;;;;;6.20;2.58;;;;;;;29.68;53.36;97505.03;5051497;28;20115;-57
2022/06/08 06:46:24;;;;;;;5.78;2.13;;;;;;;30.47;48.57;97508.38;5050030;28;20047;-57
2022/06/08 06:48:50;;;;;;;5.75;2.65;;;;;;;32.69;44.32;97506.16;5050706;28;20029;-57
2022/06/08 06:51:15;;;;;;;4.85;2.10;;;;;;;31.97;46.46;97508.09;5050317;28;20047;-57
2022/06/08 06:53:41;;;;;;;3.72;2.10;;;;;;;31.17;47.46;97497.34;5054147;28;20123;-57
2022/06/08 06:56:08;;;;;;;5.28;2.35;;;;;;;28.72;50.32;97510.78;5052004;28;20190;-56
2022/06/08 06:58:34;;;;;;;4.22;2.08;;;;;;;32.03;45.70;97505.38;5051018;28;20029;-58
2022/06/08 07:00:59;;;;;;;4.93;2.25;;;;;;;31.13;46.30;97505.00;5052519;28;20045;-58
2022/06/08 07:03:25;;;;;;;7.22;2.40;;;;;;;31.44;44.84;97503.56;5051042;28;20034;-57
2022/06/08 07:05:50;;;;;;;3.88;2.05;;;;;;;31.09;45.83;97501.91;5052899;28;20029;-59
2022/06/08 07:08:15;;;;;;;5.47;2.40;;;;;;;30.79;46.38;97504.13;5051976;28;20454;-56
2022/06/08 07:10:43;;;;;;;6.30;2.55;;;;;;;30.44;47.99;97501.56;5049546;28;20123;-56
2022/06/08 07:13:09;;;;;;;6.40;2.17;;;;;;;28.88;50.84;97498.16;5051716;28;20062;-57
2022/06/08 07:15:35;;;;;;;6.80;2.20;;;;;;;31.60;46.11;97495.09;5053181;28;20483;-58
2022/06/08 07:18:00;;;;;;;6.47;2.60;;;;;;;32.12;44.48;97492.50;5051066;28;20027;-57
2022/06/08 07:20:25;;;;;;;4.05;1.80;;;;;;;33.05;43.31;97493.91;5048324;28;20031;-57
2022/06/08 07:22:51;;;;;;;6.85;2.20;;;;;;;34.92;38.90;97473.78;5051542;28;20040;-57
2022/06/08 07:25:18;;;;;;;7.68;2.20;;;;;;;33.88;38.17;97479.25;5051468;28;20086;-57
2022/06/08 07:27:44;;;;;;;6.60;2.20;;;;;;;32.47;42.09;97486.72;5050947;28;20032;-56
2022/06/08 07:30:11;;;;;;;9.18;2.47;;;;;;;32.07;41.88;97476.97;5048558;28;20095;-57
2022/06/08 07:32:37;;;;;;;4.85;2.10;;;;;;;31.29;45.50;97468.75;5054077;28;20020;-56
2022/06/08 07:35:06;;;;;;;8.23;2.38;;;;;;;29.00;48.78;97465.25;5049196;28;20029;-56
2022/06/08 07:37:31;;;;;;;6.57;2.00;;;;;;;28.11;50.22;97465.50;5050468;28;20571;-57
2022/06/08 07:39:57;;;;;;;7.50;2.40;;;;;;;29.89;47.06;97461.16;5048050;28;20232;-56
2022/06/08 07:42:22;;;;;;;8.57;2.45;;;;;;;30.35;47.81;97463.22;5046223;28;20375;-58
2022/06/08 07:44:48;;;;;;;8.20;2.38;;;;;;;31.21;44.26;97448.25;5049879;28;20021;-56
2022/06/08 07:47:15;;;;;;;4.32;1.85;;;;;;;30.16;43.94;97450.50;5050473;28;20060;-57
2022/06/08 07:49:41;;;;;;;6.07;2.30;;;;;;;29.75;44.68;97441.41;5049679;28;20021;-56
2022/06/08 07:52:06;;;;;;;4.90;1.70;;;;;;;31.06;42.22;97442.25;5048752;28;20033;-56
2022/06/08 07:54:32;;;;;;;4.93;1.93;;;;;;;33.69;38.41;97434.31;5051451;28;20025;-61
2022/06/08 07:56:59;;;;;;;6.07;1.98;;;;;;;31.38;40.02;97434.34;5050164;28;20492;-57
2022/06/08 07:59:27;;;;;;;8.27;2.33;;;;;;;32.22;38.98;97425.44;5048070;28;20028;-58
2022/06/08 08:01:52;;;;;;;6.03;2.40;;;;;;;33.90;37.75;97425.75;5047432;28;20025;-58
2022/06/08 08:04:18;;;;;;;5.00;2.10;;;;;;;33.99;37.60;97418.16;5047513;28;20390;-58
2022/06/08 08:06:43;;;;;;;5.95;2.08;;;;;;;34.02;36.58;97419.56;5049125;28;20042;-57
2022/06/08 08:09:15;;;;;;;5.82;2.05;;;;;;;32.46;37.75;97429.22;5049145;28;20033;-57
2022/06/08 08:11:41;;;;;;;5.50;1.92;;;;;;;30.78;38.17;97423.56;5048442;28;20059;-57
2022/06/08 08:14:06;;;;;;;6.63;2.55;;;;;;;30.04;38.04;97417.16;5049339;28;20029;-58
2022/06/08 08:16:32;;;;;;;6.72;2.20;;;;;;;29.01;42.35;97421.25;5045437;28;20099;-57
2022/06/08 08:18:58;;;;;;;6.65;2.10;;;;;;;25.82;47.27;97414.69;5047022;28;20051;-57
2022/06/08 08:21:24;;;;;;;5.32;1.80;;;;;;;27.08;47.36;97422.38;5045587;28;20032;-58
2022/06/08 08:23:50;;;;;;;6.57;2.13;;;;;;;25.61;49.55;97417.94;5049543;28;20027;-57
2022/06/08 08:26:16;;;;;;;7.35;2.67;;;;;;;26.35;51.39;97416.56;5048895;28;20102;-56
2022/06/08 08:28:41;;;;;;;9.32;3.08;;;;;;;25.91;55.02;97424.31;5049507;28;20430;-58
2022/06/08 08:31:06;;;;;;;7.90;2.65;;;;;;;25.41;56.38;97423.66;5047426;28;20405;-57
2022/06/08 08:33:32;;;;;;;8.20;2.72;;;;;;;24.92;58.69;97413.88;5048561;28;20100;-59
2022/06/08 08:35:57;;;;;;;12.85;2.42;;;;;;;23.72;61.99;97420.44;5052947;28;20055;-59
2022/06/08 08:38:23;;;;;;;8.75;2.65;;;;;;;23.94;62.92;97419.88;5054248;28;20441;-60
2022/06/08 08:40:58;;;;;;;11.30;3.25;;;;;;;24.29;66.40;97417.97;5046975;28;20033;-57
2022/06/08 08:43:37;;;;;;;9.18;2.60;;;;;;;23.31;72.65;97417.59;5047981;28;20021;-58
2022/06/08 08:46:28;;;;;;;13.48;2.70;;;;;;;23.75;70.07;97409.47;5047115;28;20044;-57
2022/06/08 08:49:13;;;;;;;18.03;3.27;;;;;;;23.05;76.23;97410.44;5037674;28;20120;-57
2022/06/08 08:51:46;;;;;;;9.38;2.70;;;;;;;22.99;83.30;97409.19;5045718;28;20780;-57
2022/06/08 08:54:31;;;;;;;11.60;2.80;;;;;;;23.64;86.24;97400.78;5046906;28;20328;-57
2022/06/08 08:57:15;;;;;;;9.38;2.70;;;;;;;23.63;79.09;97387.63;5049539;28;20100;-55
2022/06/08 08:59:48;;;;;;;7.93;2.42;;;;;;;24.19;77.03;97388.00;5049410;28;20525;-56
2022/06/08 09:05:12;;;;;;;11.27;2.65;;;;;;;25.58;60.03;97374.56;5048983;28;20054;-59
2022/06/08 09:07:38;;;;;;;9.65;2.63;;;;;;;27.54;57.13;97375.91;5050262;28;20134;-57
2022/06/08 09:10:04;;;;;;;9.20;2.90;;;;;;;26.83;53.43;97370.13;5048984;28;20107;-58
2022/06/08 09:12:29;;;;;;;8.25;2.65;;;;;;;27.03;53.80;97367.75;5051083;28;20037;-57
2022/06/08 09:15:00;;;;;;;9.45;3.13;;;;;;;26.85;52.28;97368.09;5050582;28;20038;-57
2022/06/08 09:17:32;;;;;;;8.68;2.70;;;;;;;27.01;51.21;97362.56;5051104;28;20044;-58
2022/06/08 09:19:59;;;;;;;14.65;3.45;;;;;;;26.54;50.33;97360.97;5046767;28;20040;-57
2022/06/08 09:22:28;;;;;;;6.95;2.25;;;;;;;28.20;48.57;97356.31;5052033;28;20138;-58
2022/06/08 09:25:01;;;;;;;11.15;2.50;;;;;;;28.97;46.52;97352.88;5049505;28;20051;-59
2022/06/08 09:27:29;;;;;;;6.80;2.20;;;;;;;29.32;45.20;97334.13;5057328;28;20049;-57
2022/06/08 09:30:16;;;;;;;8.10;2.70;;;;;;;28.89;45.13;97328.03;5048291;28;20047;-58
2022/06/08 09:32:41;;;;;;;8.38;2.15;;;;;;;29.40;43.91;97331.25;5047502;28;20123;-57
2022/06/08 09:35:19;;;;;;;6.03;2.03;;;;;;;29.06;44.15;97334.78;5050231;28;20119;-58
2022/06/08 09:37:46;;;;;;;6.93;2.05;;;;;;;30.00;41.61;97325.31;5047919;28;20572;-57
2022/06/08 09:40:36;;;;;;;5.72;2.20;;;;;;;29.93;41.07;97321.78;5047627;28;20029;-57
2022/06/08 09:43:20;;;;;;;7.85;2.10;;;;;;;30.43;38.32;97319.63;5048962;28;20107;-58
2022/06/08 09:46:03;;;;;;;8.38;2.22;;;;;;;32.24;38.68;97314.56;5046933;28;20063;-57
2022/06/08 09:51:50;;;;;;;9.38;2.38;;;;;;;29.73;39.84;97310.94;5046418;28;20843;-57
2022/06/08 09:54:36;;;;;;;6.88;2.13;;;;;;;32.77;35.25;97305.25;5057933;28;20052;-57
2022/06/08 09:57:26;;;;;;;5.72;1.80;;;;;;;30.03;37.22;97307.94;5050614;28;20068;-57
2022/06/08 09:59:51;;;;;;;6.47;2.25;;;;;;;28.97;40.19;97301.88;5049984;28;20031;-58
2022/06/08 10:02:20;;;;;;;6.23;2.03;;;;;;;28.85;40.38;97292.72;5052361;28;20033;-57
2022/06/08 10:05:06;;;;;;;7.22;2.20;;;;;;;29.53;39.90;97292.06;5052720;28;20270;-57
2022/06/08 10:07:52;;;;;;;6.00;2.20;;;;;;;31.40;37.42;97287.59;5052526;28;20040;-59
2022/06/08 10:10:27;;;;;;;9.75;2.80;;;;;;;30.72;36.49;97286.06;5051197;28;20512;-58
2022/06/08 10:12:58;;;;;;;8.70;2.20;;;;;;;30.56;36.47;97287.31;5052044;28;20033;-58
2022/06/08 10:15:43;;;;;;;7.03;2.17;;;;;;;28.97;39.36;97277.72;5051551;28;20040;-58
2022/06/08 10:18:36;;;;;;;6.18;1.95;;;;;;;31.07;35.30;97279.63;5053613;28;20048;-57
2022/06/08 10:21:13;;;;;;;6.63;2.20;;;;;;;30.26;36.93;97278.81;5052592;28;20696;-57
2022/06/08 10:24:07;;;;;;;9.65;2.30;;;;;;;29.92;36.99;97269.03;5053090;28;20785;-58
2022/06/08 10:26:46;;;;;;;5.70;2.03;;;;;;;27.94;40.00;97279.97;5051577;28;20123;-58
2022/06/08 10:29:33;;;;;;;8.30;2.28;;;;;;;28.06;41.05;97265.03;5053312;28;20066;-59
2022/06/08 10:32:12;;;;;;;7.82;2.22;;;;;;;27.19;41.35;97263.19;5051176;28;20045;-57
2022/06/08 10:34:38;;;;;;;6.43;2.17;;;;;;;29.26;42.11;97259.69;5053032;28;20017;-57
2022/06/08 10:37:18;;;;;;;8.45;2.47;;;;;;;28.75;39.72;97262.72;5051382;28;20190;-57
2022/06/08 10:39:46;;;;;;;7.90;2.40;;;;;;;29.72;38.31;97260.91;5050798;28;20482;-58
2022/06/08 10:44:58;;;;;;;8.95;2.40;;;;;;;28.35;37.88;97257.03;5050322;28;20036;-57
2022/06/08 10:47:26;;;;;;;9.73;2.45;;;;;;;28.55;38.49;97241.94;5051934;28;20087;-58
2022/06/08 10:50:00;;;;;;;9.27;2.78;;;;;;;29.34;40.26;97245.31;5053226;28;20107;-59
2022/06/08 10:52:48;;;;;;;8.32;2.10;;;;;;;29.84;37.52;97239.69;5049685;28;20156;-57
2022/06/08 10:55:14;;;;;;;8.15;2.53;;;;;;;29.55;37.03;97241.63;5052646;28;20029;-58
2022/06/08 10:57:52;;;;;;;6.18;1.80;;;;;;;28.05;39.20;97241.13;5051110;28;20395;-57
2022/06/08 11:00:18;;;;;;;9.75;2.47;;;;;;;28.33;38.28;97240.31;5050449;28;20040;-58
2022/06/08 11:02:47;;;;;;;8.52;2.20;;;;;;;27.91;38.48;97239.31;5051546;28;20013;-57
2022/06/08 11:05:28;;;;;;;11.38;2.65;;;;;;;27.75;38.59;97230.47;5049828;28;20101;-55
2022/06/08 11:08:14;;;;;;;13.43;2.70;;;;;;;27.64;39.32;97229.16;5051225;28;20043;-57
2022/06/08 11:10:53;;;;;;;10.45;3.20;;;;;;;27.30;39.44;97224.44;5046364;28;21158;-57
2022/06/08 11:13:27;;;;;;;13.48;2.80;;;;;;;27.86;39.76;97221.94;5046820;28;20021;-58
2022/06/08 11:15:53;;;;;;;9.52;2.53;;;;;;;27.81;38.88;97207.44;5045748;28;20039;-58
2022/06/08 11:18:43;;;;;;;8.25;2.33;;;;;;;27.48;39.35;97213.31;5049415;28;20044;-59
2022/06/08 11:21:15;;;;;;;12.10;2.58;;;;;;;27.85;38.88;97206.88;5047573;28;20098;-58
2022/06/08 11:23:40;;;;;;;;;;;;;;;28.36;40.33;97202.34;5050023;28;20035;-58
2022/06/08 11:26:06;;;;;;;9.15;2.75;;;;;;;29.01;37.54;97198.44;5046718;28;20381;-58
2022/06/08 11:28:31;;;;;;;10.67;2.93;;;;;;;28.35;37.91;97198.84;5045563;28;20029;-56
2022/06/08 11:31:08;;;;;;;8.52;2.55;;;;;;;27.86;39.41;97199.66;5047336;28;20297;-56
2022/06/08 11:34:03;;;;;;;10.02;2.97;;;;;;;26.48;40.90;97201.25;5047121;28;20025;-58
2022/06/08 11:36:31;;;;;;;6.90;2.10;;;;;;;27.18;40.58;97185.75;5046396;28;20363;-57
2022/06/08 11:39:04;;;;;;;8.00;2.25;;;;;;;27.30;41.02;97189.63;5046477;28;20033;-60
2022/06/08 11:41:38;;;;;;;8.75;2.75;;;;;;;27.62;40.66;97190.97;5045535;28;20047;-55
2022/06/08 11:44:22;;;;;;;9.32;2.53;;;;;;;27.75;41.32;97187.59;5044673;28;20024;-57
2022/06/08 11:47:01;;;;;;;16.60;3.95;;;;;;;27.83;40.53;97178.63;5043226;28;20037;-57
2022/06/08 11:49:32;;;;;;;16.58;2.80;;;;;;;27.46;39.87;97178.69;5049290;28;20665;-58
2022/06/08 11:51:57;;;;;;;9.10;2.50;;;;;;;27.10;39.94;97175.97;5052448;28;20180;-57
2022/06/08 11:54:26;;;;;;;7.22;2.25;;;;;;;26.71;41.72;97185.16;5049135;28;20112;-59